sensor_id;sensor_type;location;lat;lon;timestamp;pressure;altitude;pressure_sealevel;temperature;humidity
2000;BME280;1001;48.87406500;9.59633600;2023-04-01T00:00:57;93716.66;;;7.94;100.00
2000;BME280;1001;48.87406500;9.59633600;2023-04-01T00:03:25;93710.94;;;7.92;100.00
2000;BME280;1001;48.87406500;9.59633600;2023-04-01T00:05:52;93728.63;;;7.95;100.00
2000;BME280;1001;48.87406500;9.59633600;2023-04-01T00:08:20;93727.56;;;7.91;100.00
2000;BME280;1001;48.87406500;9.59633600;2023-04-01T00:10:46;93713.69;;;7.81;100.00
2000;BME280;1001;48.87406500;9.59633600;2023-04-01T00:13:15;93705.88;;;7.81;100.00
2000;BME280;1001;48.87406500;9.59633600;2023-04-01T00:15:42;93718.88;;;7.81;100.00
2000;BME280;1001;48.87406500;9.59633600;2023-04-01T00:18:08;93723.56;;;7.84;100.00
2000;BME280;1001;48.87406500;9.59633600;2023-04-01T00:20:35;93714.75;;;7.85;100.00
2000;BME280;1001;48.87406500;9.59633600;2023-04-01T00:23:03;93701.22;;;7.83;100.00
2000;BME280;1001;48.87406500;9.59633600;2023-04-01T00:25:30;93730.06;;;7.81;100.00
2000;BME280;1001;48.87406500;9.59633600;2023-04-01T00:27:57;93729.56;;;7.84;100.00
2000;BME280;1001;48.87406500;9.59633600;2023-04-01T00:30:25;93727.72;;;7.80;100.00
2000;BME280;1001;48.87406500;9.59633600;2023-04-01T00:32:51;93728.78;;;7.84;100.00
2000;BME280;1001;48.87406500;9.59633600;2023-04-01T00:35:18;93721.91;;;7.73;100.00
2000;BME280;1001;48.87406500;9.59633600;2023-04-01T00:37:45;93738.31;;;7.73;100.00
2000;BME280;1001;48.87406500;9.59633600;2023-04-01T00:40:24;93730.72;;;7.72;100.00
2000;BME280;1001;48.87406500;9.59633600;2023-04-01T00:42:51;93737.50;;;7.94;100.00
2000;BME280;1001;48.87406500;9.59633600;2023-04-01T00:45:32;93724.78;;;7.76;100.00
2000;BME280;1001;48.87406500;9.59633600;2023-04-01T00:48:04;93725.59;;;7.77;100.00
2000;BME280;1001;48.87406500;9.59633600;2023-04-01T00:50:33;93730.78;;;7.77;100.00
2000;BME280;1001;48.87406500;9.59633600;2023-04-01T00:53:01;93729.72;;;7.73;100.00
2000;BME280;1001;48.87406500;9.59633600;2023-04-01T00:55:32;93725.78;;;7.70;100.00
2000;BME280;1001;48.87406500;9.59633600;2023-04-01T00:58:02;93708.84;;;7.68;100.00
2000;BME280;1001;48.87406500;9.59633600;2023-04-01T01:00:32;93729.13;;;7.66;100.00
2000;BME280;1001;48.87406500;9.59633600;2023-04-01T01:02:59;93723.91;;;7.66;100.00
2000;BME280;1001;48.87406500;9.59633600;2023-04-01T01:05:38;93713.41;;;7.55;100.00
2000;BME280;1001;48.87406500;9.59633600;2023-04-01T01:08:15;93715.94;;;7.50;100.00
2000;BME280;1001;48.87406500;9.59633600;2023-04-01T01:10:49;93708.19;;;7.55;100.00
2000;BME280;1001;48.87406500;9.59633600;2023-04-01T01:13:17;93724.50;;;7.73;100.00
2000;BME280;1001;48.87406500;9.59633600;2023-04-01T01:15:52;93729.13;;;7.66;100.00
2000;BME280;1001;48.87406500;9.59633600;2023-04-01T01:18:27;93707.31;;;7.72;100.00
2000;BME280;1001;48.87406500;9.59633600;2023-04-01T01:24:17;93728.38;;;7.70;100.00
2000;BME280;1001;48.87406500;9.59633600;2023-04-01T01:26:53;93713.56;;;7.71;100.00
2000;BME280;1001;48.87406500;9.59633600;2023-04-01T01:29:35;93721.66;;;7.74;100.00
2000;BME280;1001;48.87406500;9.59633600;2023-04-01T01:32:16;93720.25;;;7.88;100.00
2000;BME280;1001;48.87406500;9.59633600;2023-04-01T01:34:48;93718.47;;;7.94;100.00
2000;BME280;1001;48.87406500;9.59633600;2023-04-01T01:37:23;93716.91;;;7.93;100.00
2000;BME280;1001;48.87406500;9.59633600;2023-04-01T01:39:56;93720.06;;;7.95;100.00
2000;BME280;1001;48.87406500;9.59633600;2023-04-01T01:42:25;93714.81;;;7.90;100.00
2000;BME280;1001;48.87406500;9.59633600;2023-04-01T01:44:55;93709.28;;;7.86;100.00
2000;BME280;1001;48.87406500;9.59633600;2023-04-01T01:47:25;93715.81;;;7.89;100.00
2000;BME280;1001;48.87406500;9.59633600;2023-04-01T01:49:53;93712.69;;;7.87;100.00
2000;BME280;1001;48.87406500;9.59633600;2023-04-01T01:52:23;93717.09;;;7.86;100.00
2000;BME280;1001;48.87406500;9.59633600;2023-04-01T01:54:51;93704.91;;;7.65;100.00
2000;BME280;1001;48.87406500;9.59633600;2023-04-01T01:57:22;93710.13;;;7.65;100.00
2000;BME280;1001;48.87406500;9.59633600;2023-04-01T01:59:51;93713.56;;;7.71;100.00
2000;BME280;1001;48.87406500;9.59633600;2023-04-01T02:02:19;93712.47;;;7.67;100.00
2000;BME280;1001;48.87406500;9.59633600;2023-04-01T02:04:48;93715.31;;;7.65;100.00
2000;BME280;1001;48.87406500;9.59633600;2023-04-01T02:07:19;93699.97;;;7.64;100.00
2000;BME280;1001;48.87406500;9.59633600;2023-04-01T02:09:49;93716.91;;;7.66;100.00
2000;BME280;1001;48.87406500;9.59633600;2023-04-01T02:12:17;93703.53;;;7.57;100.00
2000;BME280;1001;48.87406500;9.59633600;2023-04-01T02:14:47;93707.13;;;7.51;100.00
2000;BME280;1001;48.87406500;9.59633600;2023-04-01T02:17:18;93715.94;;;7.50;100.00
2000;BME280;1001;48.87406500;9.59633600;2023-04-01T02:19:48;93704.22;;;7.48;100.00
2000;BME280;1001;48.87406500;9.59633600;2023-04-01T02:22:21;93713.28;;;7.45;100.00
2000;BME280;1001;48.87406500;9.59633600;2023-04-01T02:24:52;93703.31;;;7.37;100.00
2000;BME280;1001;48.87406500;9.59633600;2023-04-01T02:27:20;93710.03;;;7.33;100.00
2000;BME280;1001;48.87406500;9.59633600;2023-04-01T02:29:47;93714.75;;;7.36;100.00
2000;BME280;1001;48.87406500;9.59633600;2023-04-01T02:32:14;93722.00;;;7.56;100.00
2000;BME280;1001;48.87406500;9.59633600;2023-04-01T02:34:43;93722.53;;;7.58;100.00
2000;BME280;1001;48.87406500;9.59633600;2023-04-01T02:37:11;93739.19;;;7.57;100.00
2000;BME280;1001;48.87406500;9.59633600;2023-04-01T02:39:38;93724.59;;;7.56;100.00
2000;BME280;1001;48.87406500;9.59633600;2023-04-01T02:42:06;93731.13;;;7.59;100.00
2000;BME280;1001;48.87406500;9.59633600;2023-04-01T02:44:33;93732.47;;;7.61;100.00
2000;BME280;1001;48.87406500;9.59633600;2023-04-01T02:46:59;93719.88;;;7.53;100.00
2000;BME280;1001;48.87406500;9.59633600;2023-04-01T02:49:26;93718.06;;;7.53;100.00
2000;BME280;1001;48.87406500;9.59633600;2023-04-01T02:51:52;93721.59;;;7.42;100.00
2000;BME280;1001;48.87406500;9.59633600;2023-04-01T02:54:19;93711.72;;;7.44;100.00
2000;BME280;1001;48.87406500;9.59633600;2023-04-01T02:56:46;93723.66;;;7.40;100.00
2000;BME280;1001;48.87406500;9.59633600;2023-04-01T02:59:14;93729.94;;;7.44;100.00
2000;BME280;1001;48.87406500;9.59633600;2023-04-01T03:01:40;93722.91;;;7.45;100.00
2000;BME280;1001;48.87406500;9.59633600;2023-04-01T03:04:07;93717.88;;;7.38;100.00
2000;BME280;1001;48.87406500;9.59633600;2023-04-01T03:06:33;93713.47;;;7.39;100.00
2000;BME280;1001;48.87406500;9.59633600;2023-04-01T03:09:00;93726.78;;;7.42;100.00
2000;BME280;1001;48.87406500;9.59633600;2023-04-01T03:11:27;93727.25;;;7.39;100.00
2000;BME280;1001;48.87406500;9.59633600;2023-04-01T03:13:54;93724.94;;;7.43;100.00
2000;BME280;1001;48.87406500;9.59633600;2023-04-01T03:16:22;93728.34;;;7.43;100.00
2000;BME280;1001;48.87406500;9.59633600;2023-04-01T03:18:49;93708.75;;;7.36;100.00
2000;BME280;1001;48.87406500;9.59633600;2023-04-01T03:21:19;93720.72;;;7.37;100.00
2000;BME280;1001;48.87406500;9.59633600;2023-04-01T03:23:46;93730.88;;;7.38;100.00
2000;BME280;1001;48.87406500;9.59633600;2023-04-01T03:26:13;93732.28;;;7.46;100.00
2000;BME280;1001;48.87406500;9.59633600;2023-04-01T03:28:40;93739.00;;;7.42;100.00
2000;BME280;1001;48.87406500;9.59633600;2023-04-01T03:31:07;93721.34;;;7.44;100.00
2000;BME280;1001;48.87406500;9.59633600;2023-04-01T03:33:35;93739.06;;;7.47;100.00
2000;BME280;1001;48.87406500;9.59633600;2023-04-01T03:36:02;93734.66;;;7.47;100.00
2000;BME280;1001;48.87406500;9.59633600;2023-04-01T03:38:31;93726.78;;;7.42;100.00
2000;BME280;1001;48.87406500;9.59633600;2023-04-01T03:40:58;93735.84;;;7.40;100.00
2000;BME280;1001;48.87406500;9.59633600;2023-04-01T03:43:25;93745.72;;;7.38;100.00
2000;BME280;1001;48.87406500;9.59633600;2023-04-01T03:45:52;93738.75;;;7.43;100.00
2000;BME280;1001;48.87406500;9.59633600;2023-04-01T03:48:20;93743.53;;;7.51;100.00
2000;BME280;1001;48.87406500;9.59633600;2023-04-01T03:50:48;93725.19;;;7.41;100.00
2000;BME280;1001;48.87406500;9.59633600;2023-04-01T03:53:14;93733.84;;;7.47;100.00
2000;BME280;1001;48.87406500;9.59633600;2023-04-01T03:55:41;93730.94;;;7.43;100.00
2000;BME280;1001;48.87406500;9.59633600;2023-04-01T03:58:08;93727.00;;;7.41;100.00
2000;BME280;1001;48.87406500;9.59633600;2023-04-01T04:00:35;93736.09;;;7.38;100.00
2000;BME280;1001;48.87406500;9.59633600;2023-04-01T04:03:02;93731.38;;;7.35;100.00
2000;BME280;1001;48.87406500;9.59633600;2023-04-01T04:05:28;93727.44;;;7.33;100.00
2000;BME280;1001;48.87406500;9.59633600;2023-04-01T04:07:56;93692.78;;;7.27;100.00
2000;BME280;1001;48.87406500;9.59633600;2023-04-01T04:10:23;93717.06;;;7.33;100.00
2000;BME280;1001;48.87406500;9.59633600;2023-04-01T04:12:50;93708.41;;;7.27;100.00
2000;BME280;1001;48.87406500;9.59633600;2023-04-01T04:15:17;93713.53;;;7.22;100.00
2000;BME280;1001;48.87406500;9.59633600;2023-04-01T04:17:44;93714.06;;;7.24;100.00
2000;BME280;1001;48.87406500;9.59633600;2023-04-01T04:20:11;93708.25;;;7.17;100.00
2000;BME280;1001;48.87406500;9.59633600;2023-04-01T04:22:38;93723.47;;;7.25;100.00
2000;BME280;1001;48.87406500;9.59633600;2023-04-01T04:25:07;93713.25;;;7.19;100.00
2000;BME280;1001;48.87406500;9.59633600;2023-04-01T04:27:34;93714.50;;;7.16;100.00
2000;BME280;1001;48.87406500;9.59633600;2023-04-01T04:30:01;93724.41;;;7.19;100.00
2000;BME280;1001;48.87406500;9.59633600;2023-04-01T04:32:28;93704.91;;;7.17;100.00
2000;BME280;1001;48.87406500;9.59633600;2023-04-01T04:34:56;93720.38;;;7.28;100.00
2000;BME280;1001;48.87406500;9.59633600;2023-04-01T04:37:22;93713.97;;;7.14;100.00
2000;BME280;1001;48.87406500;9.59633600;2023-04-01T04:39:50;93724.41;;;7.19;100.00
2000;BME280;1001;48.87406500;9.59633600;2023-04-01T04:42:18;93718.91;;;7.16;100.00
2000;BME280;1001;48.87406500;9.59633600;2023-04-01T04:44:45;93726.31;;;7.24;100.00
2000;BME280;1001;48.87406500;9.59633600;2023-04-01T04:47:12;93717.91;;;7.17;100.00
2000;BME280;1001;48.87406500;9.59633600;2023-04-01T04:49:38;93722.84;;;7.18;100.00
2000;BME280;1001;48.87406500;9.59633600;2023-04-01T04:52:05;93714.25;;;7.18;100.00
2000;BME280;1001;48.87406500;9.59633600;2023-04-01T04:54:31;93720.50;;;7.17;100.00
2000;BME280;1001;48.87406500;9.59633600;2023-04-01T04:56:58;93721.03;;;7.19;100.00
2000;BME280;1001;48.87406500;9.59633600;2023-04-01T04:59:26;93722.13;;;7.23;100.00
2000;BME280;1001;48.87406500;9.59633600;2023-04-01T05:01:52;93721.81;;;7.19;100.00
2000;BME280;1001;48.87406500;9.59633600;2023-04-01T05:04:19;93704.34;;;7.15;100.00
2000;BME280;1001;48.87406500;9.59633600;2023-04-01T05:06:46;93718.13;;;7.15;100.00
2000;BME280;1001;48.87406500;9.59633600;2023-04-01T05:09:12;93715.56;;;6.99;100.00
2000;BME280;1001;48.87406500;9.59633600;2023-04-01T05:11:39;93716.00;;;6.91;100.00
2000;BME280;1001;48.87406500;9.59633600;2023-04-01T05:14:05;93719.72;;;7.16;100.00
2000;BME280;1001;48.87406500;9.59633600;2023-04-01T05:16:33;93717.09;;;7.16;100.00
2000;BME280;1001;48.87406500;9.59633600;2023-04-01T05:19:00;93706.16;;;7.14;100.00
2000;BME280;1001;48.87406500;9.59633600;2023-04-01T05:21:26;93711.41;;;7.19;100.00
2000;BME280;1001;48.87406500;9.59633600;2023-04-01T05:23:53;93723.19;;;7.27;100.00
2000;BME280;1001;48.87406500;9.59633600;2023-04-01T05:26:20;93718.50;;;7.24;100.00
2000;BME280;1001;48.87406500;9.59633600;2023-04-01T05:28:46;93703.59;;;7.19;100.00
2000;BME280;1001;48.87406500;9.59633600;2023-04-01T05:31:13;93715.66;;;7.25;100.00
2000;BME280;1001;48.87406500;9.59633600;2023-04-01T05:33:41;93710.13;;;7.22;100.00
2000;BME280;1001;48.87406500;9.59633600;2023-04-01T05:36:09;93716.59;;;7.19;100.00
2000;BME280;1001;48.87406500;9.59633600;2023-04-01T05:38:36;93707.53;;;7.22;100.00
2000;BME280;1001;48.87406500;9.59633600;2023-04-01T05:41:03;93709.72;;;7.30;100.00
2000;BME280;1001;48.87406500;9.59633600;2023-04-01T05:43:30;93700.53;;;7.22;100.00
2000;BME280;1001;48.87406500;9.59633600;2023-04-01T05:45:57;93703.75;;;7.29;100.00
2000;BME280;1001;48.87406500;9.59633600;2023-04-01T05:48:23;93706.06;;;7.26;100.00
2000;BME280;1001;48.87406500;9.59633600;2023-04-01T05:50:51;93699.66;;;7.33;100.00
2000;BME280;1001;48.87406500;9.59633600;2023-04-01T05:53:18;93697.88;;;7.39;100.00
2000;BME280;1001;48.87406500;9.59633600;2023-04-01T05:55:44;93700.53;;;7.44;100.00
2000;BME280;1001;48.87406500;9.59633600;2023-04-01T05:58:11;93709.59;;;7.41;100.00
2000;BME280;1001;48.87406500;9.59633600;2023-04-01T06:00:38;93702.34;;;7.43;100.00
2000;BME280;1001;48.87406500;9.59633600;2023-04-01T06:03:04;93706.66;;;7.60;100.00
2000;BME280;1001;48.87406500;9.59633600;2023-04-01T06:05:38;93705.59;;;7.55;100.00
2000;BME280;1001;48.87406500;9.59633600;2023-04-01T06:08:11;93702.78;;;7.57;99.85
2000;BME280;1001;48.87406500;9.59633600;2023-04-01T06:10:51;93706.66;;;7.60;99.95
2000;BME280;1001;48.87406500;9.59633600;2023-04-01T06:13:30;93709.38;;;7.70;98.99
2000;BME280;1001;48.87406500;9.59633600;2023-04-01T06:16:07;93710.66;;;7.67;99.22
2000;BME280;1001;48.87406500;9.59633600;2023-04-01T06:18:54;93704.44;;;7.68;98.76
2000;BME280;1001;48.87406500;9.59633600;2023-04-01T06:21:37;93711.44;;;7.68;98.89
2000;BME280;1001;48.87406500;9.59633600;2023-04-01T06:24:22;93694.47;;;7.60;98.70
2000;BME280;1001;48.87406500;9.59633600;2023-04-01T06:26:59;93716.91;;;7.66;99.18
2000;BME280;1001;48.87406500;9.59633600;2023-04-01T06:29:47;93699.03;;;7.75;98.62
2000;BME280;1001;48.87406500;9.59633600;2023-04-01T06:32:30;93714.50;;;7.86;97.97
2000;BME280;1001;48.87406500;9.59633600;2023-04-01T06:35:16;93708.06;;;7.94;97.07
2000;BME280;1001;48.87406500;9.59633600;2023-04-01T06:40:41;93711.00;;;8.02;96.44
2000;BME280;1001;48.87406500;9.59633600;2023-04-01T06:43:18;93706.44;;;8.14;96.00
2000;BME280;1001;48.87406500;9.59633600;2023-04-01T06:45:52;93705.84;;;8.07;95.94
2000;BME280;1001;48.87406500;9.59633600;2023-04-01T06:48:35;93707.38;;;8.30;95.27
2000;BME280;1001;48.87406500;9.59633600;2023-04-01T06:51:13;93698.53;;;8.31;94.26
2000;BME280;1001;48.87406500;9.59633600;2023-04-01T06:53:50;93695.00;;;8.47;94.16
2000;BME280;1001;48.87406500;9.59633600;2023-04-01T06:56:21;93695.00;;;8.47;93.48
2000;BME280;1001;48.87406500;9.59633600;2023-04-01T06:58:53;93692.38;;;8.47;93.99
2000;BME280;1001;48.87406500;9.59633600;2023-04-01T07:01:24;93697.03;;;8.40;93.68
2000;BME280;1001;48.87406500;9.59633600;2023-04-01T07:03:55;93710.09;;;8.45;93.80
2000;BME280;1001;48.87406500;9.59633600;2023-04-01T07:06:27;93696.31;;;8.18;94.13
2000;BME280;1001;48.87406500;9.59633600;2023-04-01T07:08:57;93710.63;;;8.15;95.20
2000;BME280;1001;48.87406500;9.59633600;2023-04-01T07:11:31;93697.50;;;8.05;94.69
2000;BME280;1001;48.87406500;9.59633600;2023-04-01T07:14:00;93696.81;;;8.15;94.81
2000;BME280;1001;48.87406500;9.59633600;2023-04-01T07:16:30;93691.81;;;8.08;95.21
2000;BME280;1001;48.87406500;9.59633600;2023-04-01T07:19:01;93703.28;;;8.12;95.18
2000;BME280;1001;48.87406500;9.59633600;2023-04-01T07:21:32;93690.53;;;8.11;94.88
2000;BME280;1001;48.87406500;9.59633600;2023-04-01T07:24:06;93699.66;;;8.13;95.00
2000;BME280;1001;48.87406500;9.59633600;2023-04-01T07:26:36;93695.31;;;8.24;94.29
2000;BME280;1001;48.87406500;9.59633600;2023-04-01T07:29:05;93685.50;;;8.31;94.06
2000;BME280;1001;48.87406500;9.59633600;2023-04-01T07:34:50;93700.28;;;8.26;94.86
2000;BME280;1001;48.87406500;9.59633600;2023-04-01T07:37:27;93689.09;;;8.25;94.00
2000;BME280;1001;48.87406500;9.59633600;2023-04-01T07:40:03;93707.91;;;8.32;94.00
2000;BME280;1001;48.87406500;9.59633600;2023-04-01T07:42:45;93710.03;;;8.35;93.55
2000;BME280;1001;48.87406500;9.59633600;2023-04-01T07:45:22;93710.75;;;8.31;94.32
2000;BME280;1001;48.87406500;9.59633600;2023-04-01T07:48:00;93706.63;;;8.35;94.89
2000;BME280;1001;48.87406500;9.59633600;2023-04-01T07:50:32;93704.72;;;8.25;95.08
2000;BME280;1001;48.87406500;9.59633600;2023-04-01T07:53:09;93719.53;;;8.24;95.00
2000;BME280;1001;48.87406500;9.59633600;2023-04-01T07:55:43;93713.88;;;8.28;94.32
2000;BME280;1001;48.87406500;9.59633600;2023-04-01T07:58:19;93714.50;;;8.40;94.70
2000;BME280;1001;48.87406500;9.59633600;2023-04-01T08:00:54;93706.34;;;8.31;95.53
2000;BME280;1001;48.87406500;9.59633600;2023-04-01T08:03:43;93710.22;;;8.29;95.94
2000;BME280;1001;48.87406500;9.59633600;2023-04-01T08:06:19;93717.09;;;8.13;96.63
2000;BME280;1001;48.87406500;9.59633600;2023-04-01T08:08:59;93715.13;;;7.98;97.51
2000;BME280;1001;48.87406500;9.59633600;2023-04-01T08:11:39;93706.31;;;7.99;98.59
2000;BME280;1001;48.87406500;9.59633600;2023-04-01T08:14:15;93693.53;;;7.98;98.06
2000;BME280;1001;48.87406500;9.59633600;2023-04-01T08:16:52;93704.78;;;8.03;97.78
2000;BME280;1001;48.87406500;9.59633600;2023-04-01T08:19:31;93713.44;;;8.09;97.72
2000;BME280;1001;48.87406500;9.59633600;2023-04-01T08:22:04;93707.13;;;8.05;97.58
2000;BME280;1001;48.87406500;9.59633600;2023-04-01T08:24:39;93712.16;;;8.11;97.50
2000;BME280;1001;48.87406500;9.59633600;2023-04-01T08:27:13;93704.13;;;8.18;96.61
2000;BME280;1001;48.87406500;9.59633600;2023-04-01T08:29:46;93723.72;;;8.26;96.31
2000;BME280;1001;48.87406500;9.59633600;2023-04-01T08:32:17;93715.56;;;8.44;95.60
2000;BME280;1001;48.87406500;9.59633600;2023-04-01T08:34:47;93693.03;;;8.28;95.95
2000;BME280;1001;48.87406500;9.59633600;2023-04-01T08:37:20;93712.59;;;8.30;95.83
2000;BME280;1001;48.87406500;9.59633600;2023-04-01T08:39:50;93715.38;;;8.55;94.59
2000;BME280;1001;48.87406500;9.59633600;2023-04-01T08:42:42;93719.56;;;8.56;94.16
2000;BME280;1001;48.87406500;9.59633600;2023-04-01T08:45:20;93718.88;;;8.71;93.70
2000;BME280;1001;48.87406500;9.59633600;2023-04-01T08:48:17;93716.56;;;8.74;94.30
2000;BME280;1001;48.87406500;9.59633600;2023-04-01T08:51:03;93715.44;;;8.60;94.46
2000;BME280;1001;48.87406500;9.59633600;2023-04-01T08:56:26;93715.69;;;8.59;96.21
2000;BME280;1001;48.87406500;9.59633600;2023-04-01T08:59:07;93685.41;;;8.53;96.58
2000;BME280;1001;48.87406500;9.59633600;2023-04-01T09:02:13;93710.84;;;8.14;98.46
2000;BME280;1001;48.87406500;9.59633600;2023-04-01T09:05:06;93717.88;;;8.13;100.00
2000;BME280;1001;48.87406500;9.59633600;2023-04-01T09:07:46;93711.06;;;8.07;100.00
2000;BME280;1001;48.87406500;9.59633600;2023-04-01T09:10:30;93731.88;;;8.07;100.00
2000;BME280;1001;48.87406500;9.59633600;2023-04-01T09:16:19;93745.03;;;7.96;100.00
2000;BME280;1001;48.87406500;9.59633600;2023-04-01T09:19:02;93744.34;;;7.79;100.00
2000;BME280;1001;48.87406500;9.59633600;2023-04-01T09:21:59;93728.88;;;7.67;100.00
2000;BME280;1001;48.87406500;9.59633600;2023-04-01T09:27:34;93737.03;;;7.76;100.00
2000;BME280;1001;48.87406500;9.59633600;2023-04-01T09:30:32;93743.56;;;8.05;100.00
2000;BME280;1001;48.87406500;9.59633600;2023-04-01T09:33:27;93730.78;;;7.77;100.00
2000;BME280;1001;48.87406500;9.59633600;2023-04-01T09:36:15;93736.50;;;7.74;100.00
2000;BME280;1001;48.87406500;9.59633600;2023-04-01T09:38:56;93730.75;;;7.98;100.00
2000;BME280;1001;48.87406500;9.59633600;2023-04-01T09:41:29;93731.28;;;8.00;100.00
2000;BME280;1001;48.87406500;9.59633600;2023-04-01T09:44:04;93723.47;;;8.00;100.00
2000;BME280;1001;48.87406500;9.59633600;2023-04-01T09:46:50;93743.09;;;8.08;100.00
2000;BME280;1001;48.87406500;9.59633600;2023-04-01T09:49:41;93724.59;;;8.04;100.00
2000;BME280;1001;48.87406500;9.59633600;2023-04-01T09:52:20;93734.09;;;7.94;100.00
2000;BME280;1001;48.87406500;9.59633600;2023-04-01T09:55:00;93709.69;;;7.73;100.00
2000;BME280;1001;48.87406500;9.59633600;2023-04-01T10:01:04;93742.25;;;7.76;100.00
2000;BME280;1001;48.87406500;9.59633600;2023-04-01T10:06:57;93746.59;;;7.70;100.00
2000;BME280;1001;48.87406500;9.59633600;2023-04-01T10:12:59;93748.53;;;7.80;100.00
2000;BME280;1001;48.87406500;9.59633600;2023-04-01T10:15:45;93741.38;;;7.92;100.00
2000;BME280;1001;48.87406500;9.59633600;2023-04-01T10:18:37;93751.97;;;7.85;100.00
2000;BME280;1001;48.87406500;9.59633600;2023-04-01T10:21:39;93738.66;;;7.82;100.00
2000;BME280;1001;48.87406500;9.59633600;2023-04-01T10:24:43;93753.31;;;7.88;100.00
2000;BME280;1001;48.87406500;9.59633600;2023-04-01T10:27:21;93753.84;;;7.90;100.00
2000;BME280;1001;48.87406500;9.59633600;2023-04-01T10:33:32;93749.13;;;8.13;100.00
2000;BME280;1001;48.87406500;9.59633600;2023-04-01T10:46:07;93755.84;;;8.09;100.00
2000;BME280;1001;48.87406500;9.59633600;2023-04-01T10:52:12;93759.81;;;8.17;100.00
2000;BME280;1001;48.87406500;9.59633600;2023-04-01T10:54:49;93746.47;;;8.08;100.00
2000;BME280;1001;48.87406500;9.59633600;2023-04-01T10:57:38;93744.66;;;8.09;100.00
2000;BME280;1001;48.87406500;9.59633600;2023-04-01T11:00:44;93742.09;;;8.14;100.00
2000;BME280;1001;48.87406500;9.59633600;2023-04-01T11:07:08;93744.66;;;8.09;100.00
2000;BME280;1001;48.87406500;9.59633600;2023-04-01T11:13:10;93762.72;;;7.94;100.00
2000;BME280;1001;48.87406500;9.59633600;2023-04-01T11:16:09;93765.91;;;8.01;100.00
2000;BME280;1001;48.87406500;9.59633600;2023-04-01T11:19:02;93767.72;;;8.00;100.00
2000;BME280;1001;48.87406500;9.59633600;2023-04-01T11:21:59;93771.06;;;7.96;100.00
2000;BME280;1001;48.87406500;9.59633600;2023-04-01T11:27:46;93760.38;;;7.92;100.00
2000;BME280;1001;48.87406500;9.59633600;2023-04-01T11:30:33;93767.19;;;7.98;100.00
2000;BME280;1001;48.87406500;9.59633600;2023-04-01T11:33:09;93771.13;;;8.01;100.00
2000;BME280;1001;48.87406500;9.59633600;2023-04-01T11:35:51;93772.16;;;8.00;100.00
2000;BME280;1001;48.87406500;9.59633600;2023-04-01T11:38:34;93760.22;;;8.04;100.00
2000;BME280;1001;48.87406500;9.59633600;2023-04-01T11:41:16;93743.97;;;7.92;100.00
2000;BME280;1001;48.87406500;9.59633600;2023-04-01T11:44:10;93773.78;;;8.06;100.00
2000;BME280;1001;48.87406500;9.59633600;2023-04-01T11:46:46;93772.78;;;8.12;100.00
2000;BME280;1001;48.87406500;9.59633600;2023-04-01T11:49:32;93766.56;;;8.13;100.00
2000;BME280;1001;48.87406500;9.59633600;2023-04-01T11:52:15;93773.09;;;8.15;100.00
2000;BME280;1001;48.87406500;9.59633600;2023-04-01T11:54:56;93766.41;;;8.24;100.00
2000;BME280;1001;48.87406500;9.59633600;2023-04-01T11:57:44;93777.38;;;8.27;100.00
2000;BME280;1001;48.87406500;9.59633600;2023-04-01T12:00:56;93777.38;;;8.27;100.00
2000;BME280;1001;48.87406500;9.59633600;2023-04-01T12:03:37;93774.78;;;8.27;100.00
2000;BME280;1001;48.87406500;9.59633600;2023-04-01T12:06:12;93782.28;;;8.23;100.00
2000;BME280;1001;48.87406500;9.59633600;2023-04-01T12:08:46;93787.72;;;8.21;100.00
2000;BME280;1001;48.87406500;9.59633600;2023-04-01T12:11:23;93786.22;;;8.26;100.00
2000;BME280;1001;48.87406500;9.59633600;2023-04-01T12:13:59;93793.38;;;8.13;100.00
2000;BME280;1001;48.87406500;9.59633600;2023-04-01T12:16:42;93789.19;;;8.12;100.00
2000;BME280;1001;48.87406500;9.59633600;2023-04-01T12:19:19;93786.91;;;8.16;100.00
2000;BME280;1001;48.87406500;9.59633600;2023-04-01T12:22:02;93779.63;;;8.18;100.00
2000;BME280;1001;48.87406500;9.59633600;2023-04-01T12:24:44;93791.56;;;8.14;100.00
2000;BME280;1001;48.87406500;9.59633600;2023-04-01T12:27:22;93790.19;;;8.28;100.00
2000;BME280;1001;48.87406500;9.59633600;2023-04-01T12:32:59;93783.84;;;8.24;100.00
2000;BME280;1001;48.87406500;9.59633600;2023-04-01T12:35:37;93787.59;;;8.28;100.00
2000;BME280;1001;48.87406500;9.59633600;2023-04-01T12:38:20;93788.66;;;8.32;100.00
2000;BME280;1001;48.87406500;9.59633600;2023-04-01T12:41:03;93792.13;;;8.16;100.00
2000;BME280;1001;48.87406500;9.59633600;2023-04-01T12:44:04;93806.56;;;8.29;100.00
2000;BME280;1001;48.87406500;9.59633600;2023-04-01T12:49:50;93805.94;;;8.43;100.00
2000;BME280;1001;48.87406500;9.59633600;2023-04-01T12:52:25;93806.72;;;8.44;100.00
2000;BME280;1001;48.87406500;9.59633600;2023-04-01T12:55:25;93810.66;;;8.46;100.00
2000;BME280;1001;48.87406500;9.59633600;2023-04-01T13:01:03;93805.78;;;8.55;100.00
2000;BME280;1001;48.87406500;9.59633600;2023-04-01T13:06:51;93808.25;;;8.71;100.00
2000;BME280;1001;48.87406500;9.59633600;2023-04-01T13:09:29;93802.94;;;8.56;100.00
2000;BME280;1001;48.87406500;9.59633600;2023-04-01T13:17:53;93806.03;;;8.53;100.00
2000;BME280;1001;48.87406500;9.59633600;2023-04-01T13:20:36;93798.97;;;8.49;100.00
2000;BME280;1001;48.87406500;9.59633600;2023-04-01T13:23:14;93786.84;;;8.38;100.00
2000;BME280;1001;48.87406500;9.59633600;2023-04-01T13:25:50;93807.75;;;8.43;100.00
2000;BME280;1001;48.87406500;9.59633600;2023-04-01T13:28:23;93820.50;;;8.39;100.00
2000;BME280;1001;48.87406500;9.59633600;2023-04-01T13:30:59;93820.00;;;8.42;100.00
2000;BME280;1001;48.87406500;9.59633600;2023-04-01T13:33:34;93826.34;;;8.51;100.00